createdAt,value
2023-10-03T00:00:29.772Z,18.45
2023-10-03T00:02:57.292Z,18.46
2023-10-03T00:05:25.580Z,18.41
2023-10-03T00:07:53.150Z,18.38
2023-10-03T00:10:20.185Z,18.37
2023-10-03T00:12:49.609Z,18.37
2023-10-03T00:15:25.992Z,18.37
2023-10-03T00:17:54.869Z,18.36
2023-10-03T00:20:23.663Z,18.35
2023-10-03T00:22:52.005Z,18.31
2023-10-03T00:25:19.527Z,18.31
2023-10-03T00:27:50.824Z,18.30
2023-10-03T00:30:20.492Z,18.33
2023-10-03T00:32:48.041Z,18.36
2023-10-03T00:35:16.222Z,18.35
2023-10-03T00:37:47.763Z,18.30
2023-10-03T00:40:23.773Z,18.24
2023-10-03T00:42:51.725Z,18.23
2023-10-03T00:45:26.128Z,18.21
2023-10-03T00:47:56.952Z,18.19
2023-10-03T00:50:26.412Z,18.21
2023-10-03T00:53:01.914Z,18.23
2023-10-03T00:55:34.158Z,18.21
2023-10-03T00:58:23.409Z,18.15
2023-10-03T01:00:58.483Z,18.13
2023-10-03T01:03:39.743Z,18.07
2023-10-03T01:06:11.989Z,18.08
2023-10-03T01:08:41.370Z,18.04
2023-10-03T01:11:14.472Z,18.05
2023-10-03T01:13:41.072Z,18.06
2023-10-03T01:16:08.172Z,18.09
2023-10-03T01:18:39.491Z,18.14
2023-10-03T01:21:07.567Z,18.11
2023-10-03T01:23:37.129Z,18.15
2023-10-03T01:26:05.135Z,18.14
2023-10-03T01:28:31.974Z,18.17
2023-10-03T01:30:58.742Z,18.17
2023-10-03T01:33:29.656Z,18.18
2023-10-03T01:35:57.394Z,18.19
2023-10-03T01:38:24.234Z,18.17
2023-10-03T01:40:53.183Z,18.18
2023-10-03T01:43:20.391Z,18.18
2023-10-03T01:45:47.053Z,18.18
2023-10-03T01:48:13.722Z,18.17
2023-10-03T01:50:40.431Z,18.14
2023-10-03T01:53:07.194Z,18.13
2023-10-03T01:55:34.957Z,18.11
2023-10-03T01:58:01.818Z,18.05
2023-10-03T02:00:28.412Z,18.07
2023-10-03T02:02:57.633Z,18.06
2023-10-03T02:05:28.158Z,18.04
2023-10-03T02:08:14.140Z,18.04
2023-10-03T02:10:41.259Z,18.06
2023-10-03T02:13:15.884Z,18.06
2023-10-03T02:15:44.218Z,18.07
2023-10-03T02:18:15.226Z,18.08
2023-10-03T02:20:52.961Z,18.08
2023-10-03T02:23:25.696Z,18.10
2023-10-03T02:25:57.422Z,18.10
2023-10-03T02:28:27.842Z,18.11
2023-10-03T02:30:57.051Z,18.13
2023-10-03T02:33:24.446Z,18.12
2023-10-03T02:35:52.148Z,18.14
2023-10-03T02:38:26.006Z,18.15
2023-10-03T02:40:58.602Z,18.20
2023-10-03T02:43:27.482Z,18.28
2023-10-03T02:45:54.136Z,18.28
2023-10-03T02:48:22.755Z,18.30
2023-10-03T02:50:51.575Z,18.29
2023-10-03T02:53:20.657Z,18.34
2023-10-03T02:55:51.460Z,18.39
2023-10-03T02:58:20.990Z,18.43
2023-10-03T03:00:54.913Z,18.48
2023-10-03T03:03:24.557Z,18.53
2023-10-03T03:05:51.939Z,18.57
2023-10-03T03:08:21.460Z,18.62
2023-10-03T03:10:58.827Z,18.71
2023-10-03T03:13:27.369Z,18.75
2023-10-03T03:16:01.766Z,18.81
2023-10-03T03:18:33.232Z,18.84
2023-10-03T03:21:02.347Z,18.88
2023-10-03T03:23:32.346Z,18.85
2023-10-03T03:26:18.395Z,18.83
2023-10-03T03:28:48.018Z,18.82
2023-10-03T03:31:23.989Z,18.84
2023-10-03T03:33:53.067Z,18.85
2023-10-03T03:36:23.228Z,18.90
2023-10-03T03:38:53.407Z,18.86
2023-10-03T03:41:20.269Z,18.88
2023-10-03T03:43:49.191Z,18.88
2023-10-03T03:46:16.846Z,18.86
2023-10-03T03:48:43.484Z,18.92
2023-10-03T03:51:12.769Z,18.91
2023-10-03T03:53:39.977Z,18.90
2023-10-03T03:56:08.644Z,18.94
2023-10-03T03:58:38.328Z,18.97
2023-10-03T04:01:24.428Z,18.93
2023-10-03T04:03:51.979Z,18.98
2023-10-03T04:06:21.961Z,19.04
2023-10-03T04:09:04.701Z,19.08
2023-10-03T04:11:34.901Z,19.14
2023-10-03T04:14:05.302Z,19.13
2023-10-03T04:16:39.269Z,19.16
2023-10-03T04:19:07.140Z,19.18
2023-10-03T04:21:34.271Z,19.13
2023-10-03T04:24:01.130Z,19.10
2023-10-03T04:26:28.715Z,19.06
2023-10-03T04:28:55.271Z,19.02
2023-10-03T04:31:21.838Z,18.98
2023-10-03T04:33:48.416Z,18.92
2023-10-03T04:36:16.372Z,18.83
2023-10-03T04:38:43.929Z,18.79
2023-10-03T04:41:11.007Z,18.72
2023-10-03T04:43:37.877Z,18.70
2023-10-03T04:46:05.870Z,18.66
2023-10-03T04:48:32.721Z,18.62
2023-10-03T04:51:00.602Z,18.59
2023-10-03T04:53:27.417Z,18.55
2023-10-03T04:55:54.151Z,18.50
2023-10-03T04:58:23.388Z,18.46
2023-10-03T05:00:50.649Z,18.42
2023-10-03T05:03:20.401Z,18.37
2023-10-03T05:05:50.081Z,18.30
2023-10-03T05:08:19.713Z,18.28
2023-10-03T05:10:48.184Z,18.24
2023-10-03T05:13:14.766Z,18.16
2023-10-03T05:15:42.208Z,18.11
2023-10-03T05:18:08.975Z,18.07
2023-10-03T05:20:42.151Z,18.06
2023-10-03T05:23:09.107Z,18.03
2023-10-03T05:25:42.602Z,18.02
2023-10-03T05:28:12.397Z,18.02
2023-10-03T05:30:42.402Z,17.99
2023-10-03T05:33:09.799Z,17.97
2023-10-03T05:35:37.212Z,17.99
2023-10-03T05:38:10.856Z,17.99
2023-10-03T05:40:37.806Z,17.97
2023-10-03T05:43:06.537Z,17.98
2023-10-03T05:45:36.164Z,18.01
2023-10-03T05:48:06.201Z,18.02
2023-10-03T05:50:34.393Z,18.04
2023-10-03T05:53:01.571Z,18.05
2023-10-03T05:55:28.144Z,18.09
2023-10-03T05:57:54.777Z,18.09
2023-10-03T06:00:22.566Z,18.10
2023-10-03T06:02:49.679Z,18.10
2023-10-03T06:05:17.356Z,18.10
2023-10-03T06:07:45.020Z,18.07
2023-10-03T06:10:12.252Z,18.09
2023-10-03T06:12:39.218Z,18.12
2023-10-03T06:15:07.906Z,18.16
2023-10-03T06:17:37.610Z,18.15
2023-10-03T06:20:07.189Z,18.15
2023-10-03T06:22:36.541Z,18.16
2023-10-03T06:25:03.040Z,18.17
2023-10-03T06:27:30.838Z,18.17
2023-10-03T06:29:57.469Z,18.19
2023-10-03T06:32:24.112Z,18.21
2023-10-03T06:34:51.279Z,18.22
2023-10-03T06:37:17.897Z,18.21
2023-10-03T06:39:44.652Z,18.19
2023-10-03T06:42:11.574Z,18.19
2023-10-03T06:44:38.348Z,18.18
2023-10-03T06:47:05.572Z,18.17
2023-10-03T06:49:32.269Z,18.15
2023-10-03T06:52:01.923Z,18.11
2023-10-03T06:54:28.951Z,18.10
2023-10-03T06:56:55.627Z,18.03
2023-10-03T06:59:22.350Z,17.97
2023-10-03T07:01:48.903Z,17.92
2023-10-03T07:04:15.653Z,17.90
2023-10-03T07:06:42.475Z,17.91
2023-10-03T07:09:12.099Z,17.88
2023-10-03T07:11:39.160Z,17.88
2023-10-03T07:14:05.693Z,17.88
2023-10-03T07:16:42.451Z,17.87
2023-10-03T07:19:11.792Z,17.88
2023-10-03T07:21:38.873Z,17.90
2023-10-03T07:24:06.066Z,17.89
2023-10-03T07:26:33.388Z,17.89
2023-10-03T07:29:02.589Z,17.87
2023-10-03T07:31:30.604Z,17.89
2023-10-03T07:33:57.943Z,17.86
2023-10-03T07:36:24.693Z,17.87
2023-10-03T07:38:51.215Z,17.87
2023-10-03T07:41:19.668Z,17.86
2023-10-03T07:43:49.719Z,17.85
2023-10-03T07:46:24.053Z,17.83
2023-10-03T07:49:00.853Z,17.82
2023-10-03T07:51:27.951Z,17.79
2023-10-03T07:53:56.760Z,17.78
2023-10-03T07:56:35.097Z,17.77
2023-10-03T07:59:03.786Z,17.76
2023-10-03T08:01:44.617Z,17.75
2023-10-03T08:04:19.851Z,17.71
2023-10-03T08:06:46.529Z,17.72
2023-10-03T08:09:14.982Z,17.73
2023-10-03T08:11:41.909Z,17.65
2023-10-03T08:14:14.601Z,17.57
2023-10-03T08:16:42.533Z,17.47
2023-10-03T08:19:10.181Z,17.39
2023-10-03T08:21:36.986Z,17.32
2023-10-03T08:24:10.865Z,17.27
2023-10-03T08:26:44.214Z,17.28
2023-10-03T08:29:10.755Z,17.30
2023-10-03T08:31:40.203Z,17.27
2023-10-03T08:34:11.884Z,17.25
2023-10-03T08:36:39.204Z,17.23
2023-10-03T08:39:06.808Z,17.20
2023-10-03T08:41:47.119Z,17.16
2023-10-03T08:44:14.458Z,17.11
2023-10-03T08:46:56.640Z,17.08
2023-10-03T08:49:28.583Z,17.10
2023-10-03T08:52:05.351Z,17.15
2023-10-03T08:54:38.111Z,17.16
2023-10-03T08:57:05.910Z,17.15
2023-10-03T08:59:32.763Z,17.15
2023-10-03T09:02:06.699Z,17.22
2023-10-03T09:04:39.326Z,17.27
2023-10-03T09:07:11.939Z,17.35
2023-10-03T09:09:43.503Z,17.40
2023-10-03T09:12:10.175Z,17.39
2023-10-03T09:14:39.579Z,17.31
2023-10-03T09:17:09.048Z,17.26
2023-10-03T09:19:46.012Z,17.18
2023-10-03T09:22:16.919Z,17.10
2023-10-03T09:24:47.276Z,17.06
2023-10-03T09:27:19.180Z,16.94
2023-10-03T09:29:50.740Z,16.92
2023-10-03T09:32:20.882Z,16.94
2023-10-03T09:34:57.826Z,17.01
2023-10-03T09:37:31.160Z,17.04
2023-10-03T09:40:02.440Z,17.02
2023-10-03T09:42:33.382Z,17.06
2023-10-03T09:45:00.656Z,17.16
2023-10-03T09:47:34.465Z,17.14
2023-10-03T09:50:10.124Z,17.16
2023-10-03T09:52:40.423Z,17.14
2023-10-03T09:55:23.280Z,17.09
2023-10-03T09:57:56.733Z,17.06
2023-10-03T10:00:42.882Z,17.03
2023-10-03T10:03:13.243Z,17.03
2023-10-03T10:05:53.286Z,17.09
2023-10-03T10:08:41.377Z,17.23
2023-10-03T10:11:11.705Z,17.34
2023-10-03T10:13:43.625Z,17.44
2023-10-03T10:16:21.866Z,17.47
2023-10-03T10:18:53.005Z,17.53
2023-10-03T10:21:32.433Z,17.56
2023-10-03T10:24:17.957Z,17.59
2023-10-03T10:26:53.910Z,17.55
2023-10-03T10:29:22.394Z,17.58
2023-10-03T10:31:59.670Z,17.58
2023-10-03T10:34:30.734Z,17.58
2023-10-03T10:36:58.239Z,17.46
2023-10-03T10:40:11.070Z,17.32
2023-10-03T10:42:57.376Z,17.14
2023-10-03T10:45:25.137Z,17.04
2023-10-03T10:47:52.448Z,16.88
2023-10-03T10:50:22.862Z,16.88
2023-10-03T10:52:57.717Z,16.82
2023-10-03T10:55:25.786Z,16.77
2023-10-03T10:58:23.513Z,16.72
2023-10-03T11:00:58.486Z,16.67
2023-10-03T11:03:25.232Z,16.62
2023-10-03T11:05:52.050Z,16.55
2023-10-03T11:08:22.954Z,16.52
2023-10-03T11:10:53.962Z,16.54
2023-10-03T11:13:24.515Z,16.56
2023-10-03T11:15:52.602Z,16.54
2023-10-03T11:18:29.174Z,16.51
2023-10-03T11:20:59.025Z,16.42
2023-10-03T11:23:25.796Z,16.30
2023-10-03T11:25:59.498Z,16.33
2023-10-03T11:28:29.575Z,16.23
2023-10-03T11:31:14.831Z,16.10
2023-10-03T11:33:47.780Z,16.00
2023-10-03T11:36:15.348Z,15.84
2023-10-03T11:38:46.223Z,15.69
2023-10-03T11:41:13.194Z,15.56
2023-10-03T11:43:50.396Z,15.53
2023-10-03T11:46:17.249Z,15.48
2023-10-03T11:48:44.314Z,15.34
2023-10-03T11:51:11.168Z,15.34
2023-10-03T11:53:37.758Z,15.27
2023-10-03T11:56:04.407Z,15.16
2023-10-03T11:58:31.926Z,15.09
2023-10-03T12:00:58.591Z,15.10
2023-10-03T12:03:25.252Z,15.12
2023-10-03T12:05:57.811Z,15.01
2023-10-03T12:08:24.942Z,15.05
2023-10-03T12:10:51.451Z,15.01
2023-10-03T12:13:18.124Z,15.09
2023-10-03T12:15:47.120Z,15.07
2023-10-03T12:18:16.745Z,15.07
2023-10-03T12:20:45.350Z,15.02
2023-10-03T12:23:11.982Z,14.92
2023-10-03T12:25:38.500Z,14.91
2023-10-03T12:28:05.056Z,15.03
2023-10-03T12:30:31.529Z,14.90
2023-10-03T12:32:58.142Z,15.01
2023-10-03T12:35:24.815Z,15.11
2023-10-03T12:37:51.326Z,15.08
2023-10-03T12:40:19.933Z,15.19
2023-10-03T12:42:48.595Z,15.34
2023-10-03T12:45:17.614Z,15.20
2023-10-03T12:47:49.316Z,15.26
2023-10-03T12:50:16.468Z,15.37
2023-10-03T12:52:49.157Z,15.18
2023-10-03T12:55:17.873Z,15.13
2023-10-03T12:57:47.721Z,15.26
2023-10-03T13:00:22.179Z,15.40
2023-10-03T13:02:50.296Z,15.29
2023-10-03T13:05:22.751Z,15.30
2023-10-03T13:07:50.936Z,15.23
2023-10-03T13:10:18.697Z,15.21
2023-10-03T13:12:46.903Z,15.23
2023-10-03T13:15:19.224Z,15.17
2023-10-03T13:17:49.332Z,15.17
2023-10-03T13:20:19.418Z,15.18
2023-10-03T13:22:48.494Z,15.10
2023-10-03T13:25:19.814Z,15.01
2023-10-03T13:27:48.973Z,14.94
2023-10-03T13:30:19.823Z,14.75
2023-10-03T13:32:51.228Z,14.48
2023-10-03T13:35:21.476Z,14.22
2023-10-03T13:37:49.463Z,14.29
2023-10-03T13:40:18.252Z,14.44
2023-10-03T13:42:45.646Z,14.57
2023-10-03T13:45:14.528Z,14.59
2023-10-03T13:47:46.414Z,14.61
2023-10-03T13:50:13.983Z,14.56
2023-10-03T13:52:42.255Z,14.65
2023-10-03T13:55:13.583Z,14.79
2023-10-03T13:57:47.318Z,15.89
2023-10-03T14:00:15.203Z,16.89
2023-10-03T14:02:48.351Z,17.15
2023-10-03T14:05:15.675Z,16.88
2023-10-03T14:07:42.323Z,16.93
2023-10-03T14:10:14.359Z,17.49
2023-10-03T14:12:41.636Z,17.92
2023-10-03T14:15:11.391Z,18.02
2023-10-03T14:17:39.498Z,17.36
2023-10-03T14:20:11.174Z,16.87
2023-10-03T14:22:44.362Z,16.34
2023-10-03T14:25:13.699Z,16.04
2023-10-03T14:27:42.660Z,15.90
2023-10-03T14:30:10.365Z,15.72
2023-10-03T14:32:38.703Z,15.64
2023-10-03T14:35:08.824Z,15.58
2023-10-03T14:37:35.936Z,15.55
2023-10-03T14:40:09.913Z,15.52
2023-10-03T14:42:37.913Z,15.45
2023-10-03T14:45:05.769Z,15.45
2023-10-03T14:47:32.825Z,15.50
2023-10-03T14:49:59.428Z,15.44
2023-10-03T14:52:25.977Z,15.40
2023-10-03T14:54:53.236Z,15.37
2023-10-03T14:57:19.903Z,15.41
2023-10-03T14:59:46.522Z,15.38
2023-10-03T15:02:14.545Z,15.30
2023-10-03T15:04:43.522Z,15.28
2023-10-03T15:07:12.239Z,15.31
2023-10-03T15:09:41.904Z,15.47
2023-10-03T15:12:08.511Z,15.77
2023-10-03T15:14:35.267Z,15.89
2023-10-03T15:17:02.350Z,16.09
2023-10-03T15:19:28.896Z,16.21
2023-10-03T15:21:56.917Z,16.11
2023-10-03T15:24:23.642Z,15.80
2023-10-03T15:26:50.325Z,15.65
2023-10-03T15:29:17.429Z,15.49
2023-10-03T15:31:45.227Z,15.36
2023-10-03T15:34:12.891Z,15.27
2023-10-03T15:36:39.732Z,15.19
2023-10-03T15:39:13.626Z,15.12
2023-10-03T15:41:40.292Z,15.10
2023-10-03T15:44:10.922Z,15.02
2023-10-03T15:46:37.466Z,14.99
2023-10-03T15:49:04.225Z,15.01
2023-10-03T15:51:30.931Z,15.07
2023-10-03T15:53:57.461Z,15.11
2023-10-03T15:56:24.457Z,15.15
2023-10-03T15:58:50.998Z,15.18
2023-10-03T16:01:17.764Z,15.25
2023-10-03T16:03:46.727Z,15.39
2023-10-03T16:06:13.932Z,15.38
2023-10-03T16:08:45.718Z,15.37
2023-10-03T16:11:12.849Z,15.37
2023-10-03T16:13:39.531Z,15.35
2023-10-03T16:16:06.157Z,15.35
2023-10-03T16:18:34.177Z,15.33
2023-10-03T16:21:10.959Z,15.33
2023-10-03T16:23:37.672Z,15.33
2023-10-03T16:26:04.268Z,15.36
2023-10-03T16:28:31.495Z,15.36
2023-10-03T16:30:58.679Z,15.43
2023-10-03T16:33:25.704Z,15.44
2023-10-03T16:35:52.440Z,15.59
2023-10-03T16:38:19.133Z,15.48
2023-10-03T16:40:46.058Z,15.26
2023-10-03T16:43:13.301Z,15.14
2023-10-03T16:45:40.753Z,15.00
2023-10-03T16:48:09.222Z,14.88
2023-10-03T16:50:37.195Z,14.85
2023-10-03T16:53:04.124Z,14.78
2023-10-03T16:55:30.665Z,14.73
2023-10-03T16:57:57.388Z,14.74
2023-10-03T17:00:24.184Z,14.71
2023-10-03T17:02:51.375Z,14.67
2023-10-03T17:05:18.033Z,14.58
2023-10-03T17:07:45.679Z,14.50
2023-10-03T17:10:16.667Z,14.45
2023-10-03T17:12:43.380Z,14.44
2023-10-03T17:15:12.915Z,14.41
2023-10-03T17:17:42.566Z,14.42
2023-10-03T17:20:13.104Z,14.42
2023-10-03T17:22:40.408Z,14.41
2023-10-03T17:25:07.490Z,14.36
2023-10-03T17:27:35.767Z,14.33
2023-10-03T17:30:09.740Z,14.32
2023-10-03T17:32:36.489Z,14.34
2023-10-03T17:35:06.587Z,14.33
2023-10-03T17:37:33.398Z,14.32
2023-10-03T17:40:00.510Z,14.35
2023-10-03T17:42:30.340Z,14.41
2023-10-03T17:44:57.606Z,14.47
2023-10-03T17:47:24.836Z,14.54
2023-10-03T17:49:53.471Z,14.56
2023-10-03T17:52:22.722Z,14.59
2023-10-03T17:54:49.512Z,14.61
2023-10-03T17:57:16.224Z,14.64
2023-10-03T17:59:50.126Z,14.59
2023-10-03T18:02:19.865Z,14.52
2023-10-03T18:04:46.644Z,14.46
2023-10-03T18:07:13.490Z,14.44
2023-10-03T18:09:40.571Z,14.38
2023-10-03T18:12:08.182Z,14.34
2023-10-03T18:14:34.708Z,14.30
2023-10-03T18:17:03.830Z,14.29
2023-10-03T18:19:30.701Z,14.25
2023-10-03T18:21:57.301Z,14.23
2023-10-03T18:24:23.842Z,14.22
2023-10-03T18:26:50.555Z,14.22
2023-10-03T18:29:18.114Z,14.21
2023-10-03T18:31:44.707Z,14.17
2023-10-03T18:34:11.283Z,14.11
2023-10-03T18:36:37.900Z,14.05
2023-10-03T18:39:04.772Z,14.00
2023-10-03T18:41:31.412Z,13.92
2023-10-03T18:43:58.625Z,13.89
2023-10-03T18:46:25.360Z,13.93
2023-10-03T18:48:53.353Z,13.97
2023-10-03T18:51:20.243Z,13.95
2023-10-03T18:53:48.129Z,13.94
2023-10-03T18:56:14.823Z,13.94
2023-10-03T18:58:41.499Z,13.89
2023-10-03T19:01:48.431Z,13.81
2023-10-03T19:04:16.329Z,13.76
2023-10-03T19:06:43.083Z,13.72
2023-10-03T19:09:13.669Z,13.70
2023-10-03T19:11:40.777Z,13.69
2023-10-03T19:14:07.459Z,13.67
2023-10-03T19:16:35.152Z,13.59
2023-10-03T19:19:02.176Z,13.58
2023-10-03T19:21:29.010Z,13.53
2023-10-03T19:23:58.150Z,13.56
2023-10-03T19:26:25.077Z,13.59
2023-10-03T19:28:51.657Z,13.60
2023-10-03T19:31:20.011Z,13.63
2023-10-03T19:33:46.804Z,13.65
2023-10-03T19:36:14.407Z,13.71
2023-10-03T19:38:42.211Z,13.73
2023-10-03T19:41:14.122Z,13.73
2023-10-03T19:43:42.333Z,13.69
2023-10-03T19:46:15.901Z,13.67
2023-10-03T19:48:42.530Z,13.65
2023-10-03T19:51:09.247Z,13.62
2023-10-03T19:53:36.249Z,13.57
2023-10-03T19:56:12.697Z,13.53
2023-10-03T19:58:40.865Z,13.48
2023-10-03T20:01:10.029Z,13.50
2023-10-03T20:03:37.229Z,13.48
2023-10-03T20:06:09.439Z,13.41
2023-10-03T20:08:36.290Z,13.37
2023-10-03T20:11:02.917Z,13.31
2023-10-03T20:13:29.505Z,13.30
2023-10-03T20:15:56.103Z,13.35
2023-10-03T20:18:23.318Z,13.37
2023-10-03T20:20:50.872Z,13.38
2023-10-03T20:23:17.574Z,13.45
2023-10-03T20:25:44.065Z,13.48
2023-10-03T20:28:10.856Z,13.55
2023-10-03T20:30:38.288Z,13.59
2023-10-03T20:33:05.710Z,13.61
2023-10-03T20:35:33.217Z,13.62
2023-10-03T20:38:00.546Z,13.60
2023-10-03T20:40:27.233Z,13.59
2023-10-03T20:42:53.809Z,13.63
2023-10-03T20:45:20.687Z,13.65
2023-10-03T20:47:47.318Z,13.60
2023-10-03T20:50:13.939Z,13.56
2023-10-03T20:52:40.611Z,13.49
2023-10-03T20:55:07.974Z,13.42
2023-10-03T20:57:34.796Z,13.38
2023-10-03T21:00:04.045Z,13.37
2023-10-03T21:02:30.988Z,13.33
2023-10-03T21:04:58.732Z,13.28
2023-10-03T21:07:25.640Z,13.27
2023-10-03T21:09:55.152Z,13.29
2023-10-03T21:12:23.879Z,13.32
2023-10-03T21:14:50.878Z,13.34
2023-10-03T21:17:17.583Z,13.30
2023-10-03T21:19:44.197Z,13.33
2023-10-03T21:22:10.771Z,13.36
2023-10-03T21:24:37.268Z,13.35
2023-10-03T21:27:03.935Z,13.35
2023-10-03T21:29:32.496Z,13.35
2023-10-03T21:31:59.477Z,13.32
2023-10-03T21:34:26.607Z,13.31
2023-10-03T21:36:55.127Z,13.26
2023-10-03T21:39:21.793Z,13.21
2023-10-03T21:41:48.336Z,13.21
2023-10-03T21:44:14.840Z,13.21
2023-10-03T21:46:41.340Z,13.23
2023-10-03T21:49:07.865Z,13.30
2023-10-03T21:51:34.366Z,13.36
2023-10-03T21:54:00.966Z,13.40
2023-10-03T21:56:28.722Z,13.37
2023-10-03T21:58:55.256Z,13.35
2023-10-03T22:01:27.297Z,13.45
2023-10-03T22:03:55.197Z,13.57
2023-10-03T22:06:22.043Z,13.56
2023-10-03T22:08:48.700Z,13.52
2023-10-03T22:11:17.757Z,13.45
2023-10-03T22:13:44.356Z,13.39
2023-10-03T22:16:11.366Z,13.39
2023-10-03T22:18:38.901Z,13.40
2023-10-03T22:21:05.709Z,13.38
2023-10-03T22:23:32.442Z,13.33
2023-10-03T22:25:59.074Z,13.27
2023-10-03T22:28:25.578Z,13.26
2023-10-03T22:30:52.173Z,13.20
2023-10-03T22:33:19.045Z,13.18
2023-10-03T22:35:45.887Z,13.16
2023-10-03T22:38:12.467Z,13.16
2023-10-03T22:40:39.414Z,13.19
2023-10-03T22:43:08.419Z,13.18
2023-10-03T22:45:35.913Z,13.18
2023-10-03T22:48:03.240Z,13.22
2023-10-03T22:50:30.235Z,13.23
2023-10-03T22:52:57.000Z,13.23
2023-10-03T22:55:23.626Z,13.24
2023-10-03T22:57:50.438Z,13.22
2023-10-03T23:00:17.236Z,13.18
2023-10-03T23:02:43.913Z,13.17
2023-10-03T23:05:11.345Z,13.15
2023-10-03T23:07:40.657Z,13.15
2023-10-03T23:10:12.244Z,13.14
2023-10-03T23:12:43.112Z,13.13
2023-10-03T23:15:11.070Z,13.16
2023-10-03T23:17:38.711Z,13.12
2023-10-03T23:20:08.308Z,13.10
2023-10-03T23:22:35.029Z,13.10
2023-10-03T23:25:01.863Z,13.08
2023-10-03T23:27:28.468Z,13.08
2023-10-03T23:29:57.210Z,13.07
2023-10-03T23:32:25.004Z,13.10
2023-10-03T23:34:54.801Z,13.10
2023-10-03T23:37:21.535Z,13.09
2023-10-03T23:39:48.242Z,13.08
2023-10-03T23:42:15.437Z,13.08
2023-10-03T23:44:44.319Z,13.07
2023-10-03T23:47:11.908Z,13.03
2023-10-03T23:49:38.661Z,13.04
2023-10-03T23:52:05.292Z,13.05
2023-10-03T23:54:31.832Z,13.02
2023-10-03T23:56:58.464Z,12.98
2023-10-03T23:59:25.045Z,12.96
